createdAt,value
2023-08-17T00:02:29.598Z,1.87
2023-08-17T00:07:34.824Z,2.08
2023-08-17T00:12:38.568Z,1.85
2023-08-17T00:17:42.840Z,1.80
2023-08-17T00:22:47.978Z,1.87
2023-08-17T00:27:51.706Z,1.80
2023-08-17T00:32:55.533Z,1.75
2023-08-17T00:38:01.426Z,1.80
2023-08-17T00:43:05.983Z,1.52
2023-08-17T00:48:10.953Z,1.85
2023-08-17T00:53:17.386Z,1.80
2023-08-17T00:58:22.225Z,1.80
2023-08-17T01:03:28.491Z,1.83
2023-08-17T01:08:33.884Z,1.90
2023-08-17T01:13:44.702Z,1.65
2023-08-17T01:18:49.910Z,1.50
2023-08-17T01:24:00.215Z,2.00
2023-08-17T01:29:04.881Z,2.15
2023-08-17T01:34:13.338Z,1.70
2023-08-17T01:39:19.444Z,1.67
2023-08-17T01:44:23.312Z,1.60
2023-08-17T01:49:28.491Z,1.65
2023-08-17T01:54:33.772Z,1.73
2023-08-17T01:59:37.530Z,1.52
2023-08-17T02:04:41.277Z,1.60
2023-08-17T02:09:47.039Z,1.87
2023-08-17T02:14:50.772Z,1.90
2023-08-17T02:19:54.574Z,1.70
2023-08-17T02:24:59.697Z,1.87
2023-08-17T02:30:03.640Z,1.80
2023-08-17T02:35:08.799Z,1.92
2023-08-17T02:40:14.329Z,1.80
2023-08-17T02:45:18.136Z,1.85
2023-08-17T02:50:21.889Z,1.60
2023-08-17T02:55:26.973Z,2.50
2023-08-17T03:00:30.706Z,1.92
2023-08-17T03:05:36.187Z,2.50
2023-08-17T03:10:41.302Z,2.17
2023-08-17T03:15:45.067Z,2.25
2023-08-17T03:20:48.910Z,1.98
2023-08-17T03:25:55.426Z,2.05
2023-08-17T03:30:59.678Z,1.92
2023-08-17T03:36:03.901Z,1.70
2023-08-17T03:41:09.825Z,1.95
2023-08-17T03:46:13.908Z,1.92
2023-08-17T03:51:17.831Z,2.08
2023-08-17T03:56:22.976Z,1.90
2023-08-17T04:01:26.798Z,1.70
2023-08-17T04:06:31.729Z,2.08
2023-08-17T04:11:38.522Z,2.00
2023-08-17T04:16:42.562Z,1.77
2023-08-17T04:21:46.376Z,1.42
2023-08-17T04:26:51.777Z,1.80
2023-08-17T04:31:55.769Z,1.80
2023-08-17T04:36:59.708Z,2.17
2023-08-17T04:42:06.594Z,2.20
2023-08-17T04:47:11.447Z,2.30
2023-08-17T04:52:15.542Z,2.95
2023-08-17T04:57:21.523Z,1.90
2023-08-17T05:02:25.700Z,1.90
2023-08-17T05:07:30.255Z,1.67
2023-08-17T05:12:35.874Z,2.30
2023-08-17T05:17:40.122Z,1.90
2023-08-17T05:22:45.610Z,2.50
2023-08-17T05:27:51.208Z,2.28
2023-08-17T05:32:55.120Z,1.98
2023-08-17T05:37:59.095Z,2.40
2023-08-17T05:43:04.473Z,2.35
2023-08-17T05:48:08.644Z,2.17
2023-08-17T05:53:12.410Z,2.53
2023-08-17T05:58:17.503Z,1.90
2023-08-17T06:03:21.549Z,2.20
2023-08-17T06:08:25.319Z,2.75
2023-08-17T06:13:30.588Z,2.62
2023-08-17T06:18:34.376Z,2.30
2023-08-17T06:23:38.080Z,2.28
2023-08-17T06:28:43.222Z,2.25
2023-08-17T06:33:47.393Z,2.33
2023-08-17T06:38:51.146Z,2.03
2023-08-17T06:43:56.256Z,2.33
2023-08-17T06:49:00.044Z,2.20
2023-08-17T06:54:03.782Z,2.55
2023-08-17T06:59:09.024Z,2.53
2023-08-17T07:04:12.832Z,2.55
2023-08-17T07:09:16.620Z,2.22
2023-08-17T07:14:22.948Z,3.25
2023-08-17T07:19:48.696Z,2.28
2023-08-17T07:24:50.897Z,2.58
2023-08-17T07:29:56.162Z,2.20
2023-08-17T07:34:59.922Z,2.30
2023-08-17T07:40:05.323Z,2.47
2023-08-17T07:45:11.473Z,2.33
2023-08-17T07:50:15.318Z,2.00
2023-08-17T07:55:19.085Z,2.25
2023-08-17T08:00:24.224Z,1.87
2023-08-17T08:05:28.221Z,2.08
2023-08-17T08:10:32.025Z,1.92
2023-08-17T08:15:37.244Z,2.12
2023-08-17T08:20:40.965Z,2.45
2023-08-17T08:25:44.717Z,2.85
2023-08-17T08:30:49.845Z,2.72
2023-08-17T08:35:53.788Z,2.03
2023-08-17T08:40:57.563Z,2.35
2023-08-17T08:46:03.689Z,2.70
2023-08-17T08:51:10.585Z,2.22
2023-08-17T08:56:14.994Z,2.55
2023-08-17T09:01:20.356Z,2.53
2023-08-17T09:06:27.535Z,2.65
2023-08-17T09:11:31.291Z,3.77
2023-08-17T09:16:36.544Z,3.65
2023-08-17T09:21:40.274Z,3.17
2023-08-17T09:26:44.120Z,4.32
2023-08-17T09:31:49.493Z,4.28
2023-08-17T09:36:53.237Z,3.95
2023-08-17T09:41:57.328Z,3.15
2023-08-17T09:47:03.010Z,3.30
2023-08-17T09:52:07.245Z,2.75
2023-08-17T09:57:12.008Z,3.87
2023-08-17T10:02:21.140Z,3.80
2023-08-17T10:07:34.298Z,3.42
2023-08-17T10:12:39.521Z,3.65
2023-08-17T10:17:53.395Z,4.30
2023-08-17T10:23:07.459Z,4.20
2023-08-17T10:28:12.163Z,5.05
2023-08-17T10:33:18.189Z,5.07
2023-08-17T10:38:22.032Z,5.25
2023-08-17T10:43:35.247Z,5.75
2023-08-17T10:48:40.432Z,5.85
2023-08-17T10:53:46.004Z,5.05
2023-08-17T10:58:53.906Z,6.43
2023-08-17T11:04:13.651Z,5.15
2023-08-17T11:09:19.762Z,4.97
2023-08-17T11:14:23.564Z,6.03
2023-08-17T11:19:28.802Z,6.80
2023-08-17T11:24:33.359Z,5.62
2023-08-17T11:29:37.598Z,5.28
2023-08-17T11:34:42.853Z,6.10
2023-08-17T11:39:46.606Z,6.20
2023-08-17T11:44:51.083Z,5.72
2023-08-17T11:50:14.755Z,5.93
2023-08-17T11:55:23.203Z,6.57
2023-08-17T12:00:27.087Z,6.30
2023-08-17T12:05:34.368Z,6.00
2023-08-17T12:10:39.609Z,6.80
2023-08-17T12:15:44.270Z,7.03
2023-08-17T12:20:54.886Z,6.32
2023-08-17T12:25:58.918Z,6.07
2023-08-17T12:31:04.394Z,7.87
2023-08-17T12:36:10.273Z,7.68
2023-08-17T12:41:14.207Z,7.82
2023-08-17T12:46:18.072Z,7.72
2023-08-17T12:51:23.193Z,8.23
2023-08-17T12:56:26.995Z,7.50
2023-08-17T13:01:30.879Z,7.87
2023-08-17T13:06:44.167Z,7.43
2023-08-17T13:11:51.658Z,6.87
2023-08-17T13:16:55.494Z,7.37
2023-08-17T13:22:00.668Z,7.45
2023-08-17T13:27:04.905Z,7.53
2023-08-17T13:32:08.626Z,6.72
2023-08-17T13:37:13.818Z,7.07
2023-08-17T13:42:17.566Z,7.30
2023-08-17T13:47:21.452Z,6.80
2023-08-17T13:52:26.963Z,7.82
2023-08-17T13:57:31.151Z,7.93
2023-08-17T14:02:35.192Z,9.32
2023-08-17T14:07:40.702Z,8.75
2023-08-17T14:12:44.419Z,8.18
2023-08-17T14:17:48.155Z,8.23
2023-08-17T14:22:53.275Z,7.80
2023-08-17T14:27:57.041Z,8.82
2023-08-17T14:33:01.357Z,8.30
2023-08-17T14:38:08.766Z,8.10
2023-08-17T14:43:14.784Z,9.60
2023-08-17T14:48:22.377Z,8.98
2023-08-17T14:58:31.397Z,8.45
2023-08-17T15:03:35.472Z,8.88
2023-08-17T15:08:40.674Z,7.93
2023-08-17T15:13:44.934Z,8.57
2023-08-17T15:18:48.683Z,8.27
2023-08-17T15:23:53.873Z,8.68
2023-08-17T15:28:57.616Z,8.85
2023-08-17T15:34:01.430Z,7.95
2023-08-17T15:39:07.071Z,8.55
2023-08-17T15:44:11.024Z,9.23
2023-08-17T15:49:14.748Z,8.68
2023-08-17T15:54:33.483Z,8.88
2023-08-17T15:59:40.928Z,9.35
2023-08-17T16:04:44.684Z,9.25
2023-08-17T16:09:49.747Z,9.50
2023-08-17T16:14:53.520Z,9.05
2023-08-17T16:19:57.274Z,9.07
2023-08-17T16:25:02.462Z,9.40
2023-08-17T16:30:07.664Z,9.10
2023-08-17T16:35:11.474Z,9.65
2023-08-17T16:40:31.926Z,10.73
2023-08-17T16:45:40.407Z,9.68
2023-08-17T16:50:44.552Z,11.52
2023-08-17T16:55:55.084Z,12.23
2023-08-17T17:00:59.378Z,12.00
2023-08-17T17:06:03.350Z,25.58
2023-08-17T17:11:09.398Z,12.70
2023-08-17T17:16:13.219Z,11.52
2023-08-17T17:21:17.007Z,11.05
2023-08-17T17:26:22.448Z,12.48
2023-08-17T17:31:26.229Z,13.07
2023-08-17T17:36:30.190Z,12.23
2023-08-17T17:41:35.257Z,12.07
2023-08-17T17:46:39.099Z,11.43
2023-08-17T17:51:42.843Z,11.30
2023-08-17T17:56:48.380Z,11.30
2023-08-17T18:01:52.157Z,10.77
2023-08-17T18:06:55.929Z,10.48
2023-08-17T18:12:00.981Z,10.52
2023-08-17T18:17:04.837Z,12.05
2023-08-17T18:22:08.583Z,11.02
2023-08-17T18:27:13.737Z,11.40
2023-08-17T18:32:17.531Z,11.00
2023-08-17T18:37:21.438Z,11.65
2023-08-17T18:42:27.789Z,14.40
2023-08-17T18:47:31.705Z,12.18
2023-08-17T18:52:35.988Z,11.02
2023-08-17T18:57:42.156Z,10.65
2023-08-17T19:02:45.945Z,11.48
2023-08-17T19:07:49.699Z,11.45
2023-08-17T19:12:54.984Z,11.27
2023-08-17T19:17:58.817Z,10.55
2023-08-17T19:23:02.561Z,11.70
2023-08-17T19:28:09.190Z,10.93
2023-08-17T19:33:12.997Z,10.82
2023-08-17T19:38:16.738Z,11.07
2023-08-17T19:43:21.774Z,11.48
2023-08-17T19:48:25.553Z,10.90
2023-08-17T19:53:29.279Z,10.15
2023-08-17T19:58:34.397Z,11.55
2023-08-17T20:03:38.263Z,10.80
2023-08-17T20:08:42.110Z,13.35
2023-08-17T20:13:47.601Z,13.27
2023-08-17T20:18:51.988Z,13.57
2023-08-17T20:23:55.749Z,12.02
2023-08-17T20:29:00.859Z,13.32
2023-08-17T20:34:04.618Z,13.18
2023-08-17T20:39:09.245Z,14.27
2023-08-17T20:44:15.256Z,14.43
2023-08-17T20:49:19.027Z,15.48
2023-08-17T20:54:23.514Z,15.88
2023-08-17T20:59:28.834Z,15.80
2023-08-17T21:04:32.824Z,16.83
2023-08-17T21:09:36.606Z,15.50
2023-08-17T21:14:41.666Z,16.95
2023-08-17T21:19:45.454Z,17.85
2023-08-17T21:24:49.235Z,19.08
2023-08-17T21:29:54.357Z,18.65
2023-08-17T21:34:58.139Z,19.05
2023-08-17T21:40:01.892Z,19.12
2023-08-17T21:45:08.165Z,18.67
2023-08-17T21:50:12.845Z,19.52
2023-08-17T21:55:16.799Z,18.30
2023-08-17T22:00:21.956Z,19.27
2023-08-17T22:05:25.691Z,18.87
2023-08-17T22:10:29.468Z,19.50
2023-08-17T22:15:34.593Z,20.30
2023-08-17T22:20:41.111Z,18.27
2023-08-17T22:25:45.517Z,20.75
2023-08-17T22:30:50.689Z,18.70
2023-08-17T22:35:54.462Z,19.90
2023-08-17T22:40:58.237Z,18.98
2023-08-17T22:46:05.067Z,18.73
2023-08-17T22:51:10.323Z,18.62
2023-08-17T22:56:14.068Z,17.73
2023-08-17T23:01:19.246Z,17.90
2023-08-17T23:06:23.091Z,17.17
2023-08-17T23:11:26.833Z,18.05
2023-08-17T23:16:32.007Z,18.60
2023-08-17T23:21:35.881Z,17.87
2023-08-17T23:26:39.621Z,17.05
2023-08-17T23:31:44.906Z,16.58
2023-08-17T23:36:48.709Z,16.08
2023-08-17T23:41:52.446Z,15.98
2023-08-17T23:46:57.595Z,14.77
2023-08-17T23:52:01.744Z,13.50
2023-08-17T23:57:05.861Z,12.05
